This is the latest recevied weather packets stored in our database for station/object PA1CD-13. If no packets are shown the sender has not sent any weather packets the latest 1 day(s).
| Time | Temp. | Humidity | Pressure | Rain* | Wind** | Luminosity | Snow |
|---|---|---|---|---|---|---|---|
| 1778099526 | 8.33° C | 10% | 1011.6 hPa | 0 mm | - | 0 W/m² | - |
| 1778099286 | 8.33° C | 10% | 1011.7 hPa | 0 mm | - | 0 W/m² | - |
| 1778098566 | 8.89° C | 11% | 1011.6 hPa | 0 mm | - | 0 W/m² | - |
| 1778097966 | 8.89° C | 12% | 1011.7 hPa | 0 mm | - | 0 W/m² | - |
| 1778097845 | 8.89° C | 12% | 1011.6 hPa | 0 mm | - | 0 W/m² | - |
| 1778097486 | 8.89° C | 13% | 1011.5 hPa | 0 mm | - | 0 W/m² | - |
| 1778097366 | 8.89° C | 14% | 1011.5 hPa | 0 mm | - | 0 W/m² | - |
| 1778097246 | 8.89° C | 15% | 1011.5 hPa | 0 mm | - | 0 W/m² | - |
| 1778097126 | 8.89° C | 15% | 1011.5 hPa | 0 mm | - | 0 W/m² | - |
| 1778096766 | 9.44° C | 16% | 1011.5 hPa | 0 mm | - | 0 W/m² | - |
| 1778096285 | 9.44° C | 18% | 1011.3 hPa | 0 mm | - | 0 W/m² | - |
| 1778095808 | 9.44° C | 19% | 1011.2 hPa | 0 mm | - | 0 W/m² | - |
| 1778095083 | 10° C | 24% | 1011.1 hPa | 0 mm | - | 0 W/m² | - |
| 1778094963 | 10° C | 25% | 1011 hPa | 0 mm | - | 5 W/m² | - |
| 1778094843 | 10° C | 28% | 1011 hPa | 0 mm | - | 5 W/m² | - |
| 1778094242 | 10° C | 32% | 1010.9 hPa | 0 mm | - | 9 W/m² | - |
| 1778094123 | 10° C | 32% | 1010.9 hPa | 0 mm | - | 9 W/m² | - |
| 1778094005 | 10° C | 32% | 1010.8 hPa | 0 mm | - | 9 W/m² | - |
| 1778093883 | 10.56° C | 34% | 1010.8 hPa | 0 mm | - | 11 W/m² | - |
| 1778093763 | 10.56° C | 38% | 1010.8 hPa | 0 mm | - | 12 W/m² | - |
| 1778093522 | 10.56° C | 38% | 1010.8 hPa | 0 mm | - | 12 W/m² | - |
| 1778092083 | 11.11° C | 51% | 1010.6 hPa | 0 mm | - | 46 W/m² | - |
| 1778091606 | 11.11° C | 55% | 1010.6 hPa | 0 mm | - | 33 W/m² | - |
| 1778091126 | 11.67° C | 59% | 1010.5 hPa | 0 mm | - | 74 W/m² | - |
| 1778090886 | 11.67° C | 61% | 1010.4 hPa | 0 mm | - | 74 W/m² | - |
* Rain latest hour (hover to see other rain measurements)
** Current wind speed in m/s (hover to see current wind gust speed)